createdAt,value
2022-08-27T00:00:44.952Z,100.00
2022-08-27T00:03:12.006Z,100.00
2022-08-27T00:05:39.336Z,100.00
2022-08-27T00:08:07.852Z,100.00
2022-08-27T00:10:34.966Z,100.00
2022-08-27T00:13:01.680Z,100.00
2022-08-27T00:15:28.871Z,100.00
2022-08-27T00:17:55.772Z,100.00
2022-08-27T00:20:26.046Z,100.00
2022-08-27T00:22:53.551Z,100.00
2022-08-27T00:25:21.461Z,100.00
2022-08-27T00:27:48.211Z,100.00
2022-08-27T00:30:18.521Z,100.00
2022-08-27T00:32:45.595Z,100.00
2022-08-27T00:35:14.227Z,100.00
2022-08-27T00:37:40.807Z,100.00
2022-08-27T00:40:10.946Z,100.00
2022-08-27T00:42:37.970Z,100.00
2022-08-27T00:45:06.829Z,100.00
2022-08-27T00:47:38.288Z,100.00
2022-08-27T00:50:10.339Z,100.00
2022-08-27T00:52:44.551Z,100.00
2022-08-27T00:55:15.484Z,100.00
2022-08-27T00:57:43.821Z,100.00
2022-08-27T01:00:14.405Z,100.00
2022-08-27T01:02:42.219Z,100.00
2022-08-27T01:05:12.507Z,100.00
2022-08-27T01:07:43.136Z,100.00
2022-08-27T01:10:14.043Z,100.00
2022-08-27T01:13:53.240Z,100.00
2022-08-27T01:16:31.173Z,100.00
2022-08-27T01:18:59.806Z,100.00
2022-08-27T01:21:39.020Z,100.00
2022-08-27T01:24:32.893Z,100.00
2022-08-27T01:27:01.246Z,100.00
2022-08-27T01:29:28.524Z,100.00
2022-08-27T01:32:05.571Z,100.00
2022-08-27T01:34:32.419Z,100.00
2022-08-27T01:36:59.042Z,100.00
2022-08-27T01:39:25.613Z,100.00
2022-08-27T01:41:52.810Z,100.00
2022-08-27T01:44:21.010Z,100.00
2022-08-27T01:46:48.038Z,100.00
2022-08-27T01:49:14.671Z,100.00
2022-08-27T01:51:41.877Z,100.00
2022-08-27T01:54:08.423Z,100.00
2022-08-27T01:56:35.021Z,100.00
2022-08-27T01:59:01.636Z,100.00
2022-08-27T02:01:28.579Z,100.00
2022-08-27T02:03:55.823Z,100.00
2022-08-27T02:06:22.394Z,100.00
2022-08-27T02:08:48.966Z,100.00
2022-08-27T02:11:15.604Z,100.00
2022-08-27T02:13:42.190Z,100.00
2022-08-27T02:16:09.133Z,100.00
2022-08-27T02:18:38.515Z,100.00
2022-08-27T02:21:15.371Z,100.00
2022-08-27T02:23:42.705Z,100.00
2022-08-27T02:26:09.276Z,100.00
2022-08-27T02:28:36.138Z,100.00
2022-08-27T02:31:03.302Z,100.00
2022-08-27T02:33:29.965Z,100.00
2022-08-27T02:35:56.522Z,100.00
2022-08-27T02:38:23.583Z,100.00
2022-08-27T02:40:54.021Z,100.00
2022-08-27T02:43:25.300Z,100.00
2022-08-27T02:45:52.310Z,100.00
2022-08-27T02:48:18.905Z,100.00
2022-08-27T02:50:45.595Z,100.00
2022-08-27T02:53:12.526Z,100.00
2022-08-27T02:55:39.171Z,100.00
2022-08-27T02:58:07.360Z,100.00
2022-08-27T03:00:34.147Z,100.00
2022-08-27T03:03:01.658Z,100.00
2022-08-27T03:05:28.658Z,100.00
2022-08-27T03:07:55.336Z,100.00
2022-08-27T03:10:23.949Z,100.00
2022-08-27T03:12:50.740Z,100.00
2022-08-27T03:15:19.720Z,100.00
2022-08-27T03:18:05.750Z,100.00
2022-08-27T03:20:33.483Z,100.00
2022-08-27T03:23:00.869Z,100.00
2022-08-27T03:25:27.926Z,100.00
2022-08-27T03:27:54.643Z,100.00
2022-08-27T03:30:23.307Z,100.00
2022-08-27T03:32:50.604Z,100.00
2022-08-27T03:35:17.751Z,100.00
2022-08-27T03:37:44.313Z,100.00
2022-08-27T03:40:11.699Z,100.00
2022-08-27T03:42:41.044Z,100.00
2022-08-27T03:45:09.558Z,100.00
2022-08-27T03:47:37.159Z,100.00
2022-08-27T03:50:06.047Z,100.00
2022-08-27T03:52:33.700Z,100.00
2022-08-27T03:55:00.403Z,100.00
2022-08-27T03:57:27.275Z,100.00
2022-08-27T03:59:54.458Z,100.00
2022-08-27T04:02:23.400Z,100.00
2022-08-27T04:04:50.084Z,100.00
2022-08-27T04:07:16.695Z,100.00
2022-08-27T04:09:43.285Z,100.00
2022-08-27T04:12:09.936Z,100.00
2022-08-27T04:14:39.989Z,100.00
2022-08-27T04:17:06.657Z,100.00
2022-08-27T04:19:34.290Z,100.00
2022-08-27T04:22:06.493Z,100.00
2022-08-27T04:24:40.855Z,100.00
2022-08-27T04:27:07.556Z,100.00
2022-08-27T04:29:34.296Z,100.00
2022-08-27T04:32:01.283Z,100.00
2022-08-27T04:34:27.891Z,100.00
2022-08-27T04:36:56.839Z,100.00
2022-08-27T04:39:23.568Z,100.00
2022-08-27T04:41:51.498Z,100.00
2022-08-27T04:44:18.214Z,100.00
2022-08-27T04:46:47.907Z,100.00
2022-08-27T04:49:17.190Z,100.00
2022-08-27T04:51:43.860Z,100.00
2022-08-27T04:54:10.918Z,100.00
2022-08-27T04:56:38.082Z,100.00
2022-08-27T04:59:06.786Z,100.00
2022-08-27T05:01:34.143Z,100.00
2022-08-27T05:04:01.169Z,100.00
2022-08-27T05:06:28.468Z,100.00
2022-08-27T05:08:55.955Z,100.00
2022-08-27T05:11:24.947Z,100.00
2022-08-27T05:13:51.593Z,100.00
2022-08-27T05:16:21.243Z,100.00
2022-08-27T05:18:50.239Z,100.00
2022-08-27T05:21:29.232Z,100.00
2022-08-27T05:23:57.434Z,100.00
2022-08-27T05:26:24.329Z,100.00
2022-08-27T05:28:51.488Z,100.00
2022-08-27T05:31:19.726Z,100.00
2022-08-27T05:33:47.182Z,100.00
2022-08-27T05:36:20.859Z,100.00
2022-08-27T05:38:51.657Z,100.00
2022-08-27T05:41:25.687Z,100.00
2022-08-27T05:44:18.446Z,100.00
2022-08-27T05:46:51.819Z,100.00
2022-08-27T05:49:18.555Z,100.00
2022-08-27T05:51:49.245Z,100.00
2022-08-27T05:54:19.861Z,100.00
2022-08-27T05:56:47.810Z,100.00
2022-08-27T05:59:34.736Z,100.00
2022-08-27T06:02:02.343Z,100.00
2022-08-27T06:04:29.151Z,100.00
2022-08-27T06:06:55.991Z,100.00
2022-08-27T06:09:26.043Z,100.00
2022-08-27T06:11:57.820Z,100.00
2022-08-27T06:14:24.746Z,100.00
2022-08-27T06:16:51.633Z,100.00
2022-08-27T06:19:18.998Z,100.00
2022-08-27T06:21:46.191Z,100.00
2022-08-27T06:24:27.212Z,100.00
2022-08-27T06:26:54.166Z,100.00
2022-08-27T06:29:23.666Z,100.00
2022-08-27T06:31:50.551Z,100.00
2022-08-27T06:34:17.539Z,100.00
2022-08-27T06:36:44.241Z,100.00
2022-08-27T06:39:13.864Z,100.00
2022-08-27T06:41:42.259Z,100.00
2022-08-27T06:44:09.239Z,100.00
2022-08-27T06:46:36.788Z,100.00
2022-08-27T06:49:03.646Z,100.00
2022-08-27T06:51:33.956Z,100.00
2022-08-27T06:54:03.566Z,100.00
2022-08-27T06:56:31.132Z,100.00
2022-08-27T06:59:02.104Z,100.00
2022-08-27T07:01:35.258Z,100.00
2022-08-27T07:04:05.627Z,100.00
2022-08-27T07:06:36.687Z,100.00
2022-08-27T07:09:04.710Z,100.00
2022-08-27T07:11:34.135Z,100.00
2022-08-27T07:14:01.159Z,100.00
2022-08-27T07:16:28.912Z,100.00
2022-08-27T07:19:03.830Z,100.00
2022-08-27T07:21:31.575Z,100.00
2022-08-27T07:23:59.785Z,100.00
2022-08-27T07:26:28.434Z,100.00
2022-08-27T07:28:55.201Z,100.00
2022-08-27T07:31:23.999Z,100.00
2022-08-27T07:33:53.156Z,100.00
2022-08-27T07:36:21.710Z,100.00
2022-08-27T07:38:57.066Z,100.00
2022-08-27T07:41:30.797Z,100.00
2022-08-27T07:44:18.903Z,100.00
2022-08-27T07:46:48.402Z,100.00
2022-08-27T07:49:17.494Z,100.00
2022-08-27T07:51:45.173Z,100.00
2022-08-27T07:54:12.146Z,100.00
2022-08-27T07:56:38.796Z,100.00
2022-08-27T07:59:05.352Z,100.00
2022-08-27T08:01:32.111Z,100.00
2022-08-27T08:03:59.122Z,100.00
2022-08-27T08:06:26.312Z,100.00
2022-08-27T08:08:52.890Z,100.00
2022-08-27T08:11:20.451Z,100.00
2022-08-27T08:13:47.842Z,100.00
2022-08-27T08:16:16.110Z,100.00
2022-08-27T08:18:43.384Z,99.81
2022-08-27T08:21:13.216Z,100.00
2022-08-27T08:23:40.867Z,99.79
2022-08-27T08:26:08.578Z,99.47
2022-08-27T08:28:35.302Z,99.54
2022-08-27T08:31:02.344Z,99.59
2022-08-27T08:33:31.632Z,98.79
2022-08-27T08:36:13.292Z,100.00
2022-08-27T08:38:40.738Z,98.96
2022-08-27T08:41:35.169Z,99.14
2022-08-27T08:44:08.770Z,99.16
2022-08-27T08:46:45.465Z,98.76
2022-08-27T08:49:30.641Z,99.11
2022-08-27T08:52:31.151Z,98.75
2022-08-27T08:55:26.591Z,97.67
2022-08-27T08:58:21.335Z,97.81
2022-08-27T09:00:54.497Z,97.47
2022-08-27T09:03:21.233Z,97.91
2022-08-27T09:05:55.718Z,96.92
2022-08-27T09:08:43.347Z,96.72
2022-08-27T09:11:39.700Z,96.04
2022-08-27T09:14:14.303Z,96.39
2022-08-27T09:16:41.026Z,96.58
2022-08-27T09:19:07.645Z,98.02
2022-08-27T09:21:44.231Z,97.38
2022-08-27T09:24:28.055Z,96.45
2022-08-27T09:26:54.821Z,96.66
2022-08-27T09:29:27.452Z,95.92
2022-08-27T09:31:54.124Z,96.13
2022-08-27T09:34:21.469Z,94.01
2022-08-27T09:37:08.183Z,93.89
2022-08-27T09:39:48.659Z,94.44
2022-08-27T09:42:37.665Z,93.07
2022-08-27T09:45:14.087Z,93.69
2022-08-27T09:47:43.675Z,92.69
2022-08-27T09:50:10.699Z,93.91
2022-08-27T09:52:55.441Z,92.69
2022-08-27T09:55:40.766Z,93.45
2022-08-27T09:58:16.193Z,92.88
2022-08-27T10:00:42.984Z,90.93
2022-08-27T10:03:11.105Z,91.69
2022-08-27T10:05:51.841Z,92.39
2022-08-27T10:08:22.464Z,93.01
2022-08-27T10:10:53.579Z,92.95
2022-08-27T10:13:24.517Z,92.82
2022-08-27T10:16:12.712Z,92.51
2022-08-27T10:19:07.182Z,91.09
2022-08-27T10:21:55.199Z,90.47
2022-08-27T10:24:54.363Z,91.09
2022-08-27T10:27:42.642Z,91.92
2022-08-27T10:30:16.215Z,93.17
2022-08-27T10:32:43.455Z,93.56
2022-08-27T10:35:16.715Z,93.33
2022-08-27T10:37:57.551Z,92.73
2022-08-27T10:40:27.060Z,91.58
2022-08-27T10:42:59.862Z,92.62
2022-08-27T10:45:45.245Z,93.04
2022-08-27T10:48:38.814Z,93.87
2022-08-27T10:51:26.278Z,95.27
2022-08-27T10:54:10.459Z,95.17
2022-08-27T10:57:14.518Z,94.82
2022-08-27T10:59:48.077Z,94.04
2022-08-27T11:02:34.551Z,95.47
2022-08-27T11:05:06.906Z,94.39
2022-08-27T11:07:38.290Z,93.90
2022-08-27T11:10:20.974Z,93.99
2022-08-27T11:12:51.867Z,91.68
2022-08-27T11:15:34.615Z,89.48
2022-08-27T11:18:24.029Z,85.97
2022-08-27T11:21:13.062Z,85.27
2022-08-27T11:24:11.803Z,85.21
2022-08-27T11:26:40.434Z,84.69
2022-08-27T11:29:29.751Z,85.78
2022-08-27T11:32:36.299Z,86.19
2022-08-27T11:35:43.475Z,85.36
2022-08-27T11:38:13.295Z,86.38
2022-08-27T11:40:58.223Z,88.00
2022-08-27T11:43:28.546Z,86.32
2022-08-27T11:46:02.281Z,84.27
2022-08-27T11:48:28.746Z,84.93
2022-08-27T11:51:03.064Z,85.17
2022-08-27T11:53:34.159Z,84.80
2022-08-27T11:56:21.389Z,84.28
2022-08-27T11:58:53.457Z,85.10
2022-08-27T12:01:27.418Z,87.81
2022-08-27T12:04:31.166Z,88.42
2022-08-27T12:07:27.229Z,85.45
2022-08-27T12:10:20.438Z,85.57
2022-08-27T12:13:17.673Z,87.49
2022-08-27T12:16:00.097Z,88.04
2022-08-27T12:18:51.625Z,87.20
2022-08-27T12:21:36.562Z,86.97
2022-08-27T12:24:21.566Z,84.65
2022-08-27T12:27:01.130Z,88.13
2022-08-27T12:29:43.962Z,87.15
2022-08-27T12:32:10.861Z,88.94
2022-08-27T12:34:49.569Z,89.87
2022-08-27T12:37:24.718Z,90.69
2022-08-27T12:39:54.499Z,87.42
2022-08-27T12:42:22.643Z,90.19
2022-08-27T12:44:57.712Z,89.67
2022-08-27T12:47:24.904Z,89.70
2022-08-27T12:50:01.792Z,88.22
2022-08-27T12:52:53.069Z,86.86
2022-08-27T12:55:45.482Z,88.62
2022-08-27T12:58:30.817Z,89.47
2022-08-27T13:01:24.375Z,91.17
2022-08-27T13:03:54.367Z,89.25
2022-08-27T13:06:30.006Z,88.95
2022-08-27T13:08:59.441Z,87.14
2022-08-27T13:11:32.141Z,88.62
2022-08-27T13:14:20.009Z,88.69
2022-08-27T13:16:56.569Z,90.77
2022-08-27T13:19:25.534Z,90.41
2022-08-27T13:21:54.275Z,87.28
2022-08-27T13:24:33.898Z,88.82
2022-08-27T13:27:03.447Z,86.16
2022-08-27T13:29:30.434Z,82.97
2022-08-27T13:31:57.567Z,83.05
2022-08-27T13:34:27.526Z,82.44
2022-08-27T13:37:07.608Z,83.53
2022-08-27T13:39:36.721Z,83.06
2022-08-27T13:42:05.918Z,84.18
2022-08-27T13:44:37.342Z,80.84
2022-08-27T13:47:18.503Z,79.67
2022-08-27T13:49:45.359Z,79.38
2022-08-27T13:52:14.976Z,80.84
2022-08-27T13:54:47.445Z,77.87
2022-08-27T13:57:24.838Z,77.74
2022-08-27T13:59:51.434Z,81.20
2022-08-27T14:02:28.702Z,74.78
2022-08-27T14:05:28.082Z,74.33
2022-08-27T14:07:57.740Z,73.26
2022-08-27T14:10:35.641Z,74.33
2022-08-27T14:13:13.382Z,72.54
2022-08-27T14:15:44.265Z,73.59
2022-08-27T14:18:42.101Z,74.30
2022-08-27T14:21:09.411Z,75.47
2022-08-27T14:23:36.083Z,75.29
2022-08-27T14:26:03.392Z,74.57
2022-08-27T14:28:31.704Z,77.41
2022-08-27T14:30:58.638Z,78.67
2022-08-27T14:33:25.376Z,76.47
2022-08-27T14:35:52.011Z,75.94
2022-08-27T14:38:22.145Z,75.33
2022-08-27T14:40:53.245Z,76.59
2022-08-27T14:43:22.999Z,74.22
2022-08-27T14:45:50.198Z,71.24
2022-08-27T14:48:28.633Z,72.62
2022-08-27T14:50:56.781Z,72.45
2022-08-27T14:53:24.263Z,69.17
2022-08-27T14:55:52.045Z,73.71
2022-08-27T14:58:19.199Z,72.69
2022-08-27T15:00:45.957Z,72.54
2022-08-27T15:03:12.872Z,69.09
2022-08-27T15:05:39.678Z,68.66
2022-08-27T15:08:08.322Z,70.63
2022-08-27T15:10:40.050Z,70.84
2022-08-27T15:13:06.723Z,71.57
2022-08-27T15:15:33.558Z,72.53
2022-08-27T15:18:00.219Z,71.75
2022-08-27T15:20:26.899Z,69.22
2022-08-27T15:22:53.595Z,71.86
2022-08-27T15:25:20.988Z,72.20
2022-08-27T15:27:48.212Z,73.53
2022-08-27T15:30:17.510Z,74.29
2022-08-27T15:32:47.422Z,75.27
2022-08-27T15:35:17.957Z,75.45
2022-08-27T15:37:45.524Z,76.70
2022-08-27T15:40:14.751Z,78.98
2022-08-27T15:42:42.210Z,78.91
2022-08-27T15:45:10.210Z,79.12
2022-08-27T15:47:37.418Z,80.14
2022-08-27T15:50:05.230Z,80.54
2022-08-27T15:52:36.974Z,81.46
2022-08-27T15:55:14.823Z,81.39
2022-08-27T15:57:41.358Z,82.09
2022-08-27T16:00:09.061Z,82.05
2022-08-27T16:02:35.912Z,82.99
2022-08-27T16:05:02.836Z,83.95
2022-08-27T16:07:29.390Z,84.41
2022-08-27T16:09:56.026Z,83.72
2022-08-27T16:12:27.354Z,84.77
2022-08-27T16:14:55.567Z,85.82
2022-08-27T16:17:26.590Z,85.00
2022-08-27T16:19:53.450Z,85.00
2022-08-27T16:22:20.336Z,84.01
2022-08-27T16:24:46.859Z,84.47
2022-08-27T16:27:13.839Z,86.17
2022-08-27T16:29:40.480Z,86.72
2022-08-27T16:32:14.349Z,84.75
2022-08-27T16:34:43.312Z,85.62
2022-08-27T16:37:10.218Z,87.18
2022-08-27T16:39:40.551Z,86.44
2022-08-27T16:42:16.454Z,85.57
2022-08-27T16:44:44.051Z,86.77
2022-08-27T16:47:10.576Z,86.77
2022-08-27T16:49:56.015Z,87.55
2022-08-27T16:52:23.841Z,87.28
2022-08-27T16:54:54.750Z,87.39
2022-08-27T16:57:21.253Z,87.47
2022-08-27T16:59:48.053Z,88.03
2022-08-27T17:02:30.343Z,88.62
2022-08-27T17:05:12.140Z,88.33
2022-08-27T17:08:01.309Z,89.28
2022-08-27T17:10:34.929Z,88.57
2022-08-27T17:13:01.844Z,88.99
2022-08-27T17:15:28.385Z,88.60
2022-08-27T17:17:57.895Z,88.17
2022-08-27T17:20:31.840Z,88.77
2022-08-27T17:23:00.953Z,88.40
2022-08-27T17:25:29.979Z,88.84
2022-08-27T17:28:00.193Z,88.59
2022-08-27T17:30:27.251Z,88.59
2022-08-27T17:32:56.522Z,88.74
2022-08-27T17:35:27.771Z,88.84
2022-08-27T17:37:54.752Z,88.68
2022-08-27T17:40:21.565Z,89.35
2022-08-27T17:42:50.251Z,89.34
2022-08-27T17:45:17.474Z,88.99
2022-08-27T17:47:44.091Z,89.55
2022-08-27T17:50:11.172Z,89.36
2022-08-27T17:53:02.609Z,89.74
2022-08-27T17:55:29.283Z,89.66
2022-08-27T17:57:55.795Z,89.79
2022-08-27T18:00:22.325Z,90.29
2022-08-27T18:02:50.233Z,90.04
2022-08-27T18:05:33.750Z,90.47
2022-08-27T18:08:00.368Z,90.27
2022-08-27T18:10:27.585Z,91.11
2022-08-27T18:12:59.640Z,91.17
2022-08-27T18:15:28.875Z,91.06
2022-08-27T18:17:57.132Z,91.53
2022-08-27T18:20:26.596Z,91.22
2022-08-27T18:22:54.322Z,91.42
2022-08-27T18:25:36.983Z,91.32
2022-08-27T18:28:09.964Z,91.58
2022-08-27T18:30:39.816Z,91.84
2022-08-27T18:33:11.476Z,92.24
2022-08-27T18:35:39.008Z,93.13
2022-08-27T18:38:06.603Z,92.90
2022-08-27T18:40:44.368Z,92.54
2022-08-27T18:43:11.415Z,92.83
2022-08-27T18:45:41.495Z,92.83
2022-08-27T18:48:21.677Z,93.15
2022-08-27T18:50:57.192Z,93.34
2022-08-27T18:53:25.677Z,92.79
2022-08-27T18:55:54.530Z,93.05
2022-08-27T18:58:21.471Z,93.32
2022-08-27T19:00:53.792Z,93.44
2022-08-27T19:03:28.092Z,93.83
2022-08-27T19:05:56.047Z,93.67
2022-08-27T19:08:38.680Z,93.05
2022-08-27T19:11:05.915Z,93.33
2022-08-27T19:13:32.705Z,93.66
2022-08-27T19:16:03.541Z,93.24
2022-08-27T19:18:35.256Z,93.92
2022-08-27T19:21:02.067Z,92.97
2022-08-27T19:23:28.688Z,93.31
2022-08-27T19:25:56.077Z,92.54
2022-08-27T19:28:38.569Z,92.73
2022-08-27T19:31:07.242Z,92.59
2022-08-27T19:33:35.117Z,93.22
2022-08-27T19:36:02.229Z,93.21
2022-08-27T19:38:31.761Z,93.62
2022-08-27T19:41:00.269Z,93.37
2022-08-27T19:43:30.148Z,93.12
2022-08-27T19:45:58.552Z,93.27
2022-08-27T19:48:25.650Z,93.45
2022-08-27T19:50:52.391Z,93.53
2022-08-27T19:53:20.931Z,93.52
2022-08-27T19:55:47.775Z,93.57
2022-08-27T19:58:16.506Z,94.12
2022-08-27T20:00:44.705Z,93.52
2022-08-27T20:03:12.257Z,93.79
2022-08-27T20:05:39.249Z,93.62
2022-08-27T20:08:06.239Z,93.54
2022-08-27T20:10:36.434Z,93.97
2022-08-27T20:13:04.102Z,93.66
2022-08-27T20:15:30.789Z,93.28
2022-08-27T20:17:59.668Z,93.19
2022-08-27T20:20:28.249Z,93.09
2022-08-27T20:22:56.533Z,93.49
2022-08-27T20:25:25.139Z,93.29
2022-08-27T20:27:53.168Z,92.55
2022-08-27T20:30:26.736Z,92.07
2022-08-27T20:32:55.842Z,91.91
2022-08-27T20:35:22.988Z,91.49
2022-08-27T20:37:50.295Z,91.12
2022-08-27T20:40:27.108Z,91.18
2022-08-27T20:42:54.124Z,91.27
2022-08-27T20:45:22.571Z,91.07
2022-08-27T20:47:52.870Z,91.04
2022-08-27T20:50:21.598Z,90.87
2022-08-27T20:52:55.102Z,90.84
2022-08-27T20:55:32.916Z,91.14
2022-08-27T20:58:19.572Z,91.14
2022-08-27T21:00:46.472Z,90.75
2022-08-27T21:03:14.911Z,90.89
2022-08-27T21:05:43.742Z,90.94
2022-08-27T21:08:10.528Z,91.44
2022-08-27T21:10:47.539Z,91.00
2022-08-27T21:13:16.241Z,91.31
2022-08-27T21:15:42.925Z,91.36
2022-08-27T21:18:09.527Z,91.20
2022-08-27T21:20:37.985Z,91.54
2022-08-27T21:23:13.395Z,91.69
2022-08-27T21:25:42.391Z,91.79
2022-08-27T21:28:30.223Z,91.89
2022-08-27T21:30:57.424Z,91.95
2022-08-27T21:33:26.694Z,92.17
2022-08-27T21:35:53.492Z,92.02
2022-08-27T21:38:20.260Z,92.43
2022-08-27T21:40:46.894Z,92.77
2022-08-27T21:43:18.088Z,92.72
2022-08-27T21:45:45.921Z,92.83
2022-08-27T21:48:13.112Z,92.82
2022-08-27T21:50:39.934Z,93.05
2022-08-27T21:53:09.797Z,93.09
2022-08-27T21:55:36.554Z,93.08
2022-08-27T21:58:06.029Z,93.41
2022-08-27T22:00:47.634Z,93.51
2022-08-27T22:03:17.025Z,93.39
2022-08-27T22:05:44.702Z,93.64
2022-08-27T22:08:13.442Z,93.66
2022-08-27T22:10:41.348Z,93.49
2022-08-27T22:13:08.633Z,93.31
2022-08-27T22:15:35.761Z,93.33
2022-08-27T22:18:03.388Z,94.21
2022-08-27T22:20:30.058Z,93.99
2022-08-27T22:22:58.775Z,93.82
2022-08-27T22:25:27.709Z,94.27
2022-08-27T22:27:55.411Z,94.59
2022-08-27T22:30:24.967Z,94.32
2022-08-27T22:32:51.991Z,93.84
2022-08-27T22:35:19.588Z,93.93
2022-08-27T22:37:47.303Z,94.15
2022-08-27T22:40:20.001Z,94.32
2022-08-27T22:42:47.349Z,94.74
2022-08-27T22:45:15.331Z,94.57
2022-08-27T22:47:43.126Z,94.39
2022-08-27T22:50:11.380Z,94.74
2022-08-27T22:52:39.065Z,94.64
2022-08-27T22:55:06.669Z,94.79
2022-08-27T22:57:35.681Z,94.96
2022-08-27T23:00:06.916Z,95.46
2022-08-27T23:02:33.434Z,95.73
2022-08-27T23:05:02.534Z,95.81
2022-08-27T23:07:32.743Z,95.79
2022-08-27T23:09:59.709Z,96.14
2022-08-27T23:12:26.472Z,96.43
2022-08-27T23:14:53.003Z,97.44
2022-08-27T23:17:19.831Z,97.49
2022-08-27T23:19:46.428Z,97.66
2022-08-27T23:22:13.149Z,97.85
2022-08-27T23:24:59.626Z,98.41
2022-08-27T23:27:29.323Z,98.57
2022-08-27T23:29:58.113Z,98.42
2022-08-27T23:32:26.001Z,98.34
2022-08-27T23:34:52.681Z,98.93
2022-08-27T23:37:19.751Z,98.91
2022-08-27T23:39:46.531Z,98.73
2022-08-27T23:42:16.085Z,98.75
2022-08-27T23:44:43.071Z,99.07
2022-08-27T23:47:09.674Z,99.38
2022-08-27T23:49:36.216Z,99.37
2022-08-27T23:52:03.985Z,99.66
2022-08-27T23:54:30.578Z,99.85
2022-08-27T23:56:57.307Z,100.00
2022-08-27T23:59:26.622Z,100.00
